Auke Bay, AK

12:39 AM AKDT on April 28, 2017 (GMT -0800)
MC6QM8 | | Change Station

Elev 0 ft 12.10 °N, 77.20 °W | Updated 4 hours ago

Overcast
Overcast
75.0 °F
Feels Like 75 °F
N
-
Wind Variable Wind from ENE

Today
High -- | Low -- °F
--% Chance of Precip.
Yesterday
High -- | Low -- °F
Precip. -- in
Pressure 30.08 in
Visibility 8.0 miles
Clouds Scattered Clouds 1600 ft
Mostly Cloudy 3600 ft
Overcast 4900 ft
Heat Index 75 °F
Dew Point 70.0 °F
Humidity 83%
Rainfall 0.04 in
Snow Depth Not available.
5:11 AM 8:42 PM
Waxing Crescent, 5% visible
METAR PAJN 280753Z 11012G23KT 8SM -RA SCT016 BKN036 OVC049 06/05 A3008 RMK AO2 SLP186 P0003 T00610050
Pressure 30.08 in
Visibility 8.0 miles
Clouds Scattered Clouds 1600 ft
Mostly Cloudy 3600 ft
Overcast 4900 ft
Heat Index 75 °F
Dew Point 70.0 °F
Humidity 83%
Rainfall 0.04 in
Snow Depth Not available.
5:11 AM 8:42 PM
Waxing Crescent, 5% visible
METAR PAJN 280753Z 11012G23KT 8SM -RA SCT016 BKN036 OVC049 06/05 A3008 RMK AO2 SLP186 P0003 T00610050

Get Severe Weather Alerts

Thanks for signing up!

Be on the lookout for a verification email in your inbox.

You'll start receiving the daily forecast at 8 AM.

×

10-Day Weather Forecast

Almanac

Astronomy

Apr. 28, 2017 Rise Set
Actual Time
Civil Twilight
Nautical Twilight
Astronomical Twilight
Moon
Length of Visible Light
Length of Day
Tomorrow will be .
, % of the Moon is Illuminated

Today's Extremes

State Highs State Lows

Community

WunderPhotos

WunderBlog® & News

Nearby

Air Quality

  Air Quality AQ Index Pollutant
Not available.

Snow Depth

Station Depth Elevation

Earthquake Activity

City Distance Mag. Time & Date
Minimum magnitude displayed is 2.5.

Coastal Water Temperatures

Place Temperature

Stations

Nearby Weather Stations

Station Location Temp. Windchill Dew Point Humidity Wind Precip. Elev Updated Type
                   

Watches & Warnings

There are currently no watches in effect.